sensor_id;sensor_type;location;lat;lon;timestamp;P1;durP1;ratioP1;P2;durP2;ratioP2
61015;SDS011;46902;52.920;6.536;2022-12-24T00:02:11;11.38;;;9.75;;
61015;SDS011;46902;52.920;6.536;2022-12-24T00:04:37;13.05;;;11.10;;
61015;SDS011;46902;52.920;6.536;2022-12-24T00:07:02;13.93;;;11.60;;
61015;SDS011;46902;52.920;6.536;2022-12-24T00:09:28;18.98;;;12.63;;
61015;SDS011;46902;52.920;6.536;2022-12-24T00:11:54;12.70;;;11.00;;
61015;SDS011;46902;52.920;6.536;2022-12-24T00:14:19;16.15;;;12.75;;
61015;SDS011;46902;52.920;6.536;2022-12-24T00:16:45;16.42;;;12.13;;
61015;SDS011;46902;52.920;6.536;2022-12-24T00:19:11;16.75;;;11.95;;
61015;SDS011;46902;52.920;6.536;2022-12-24T00:21:36;13.25;;;11.70;;
61015;SDS011;46902;52.920;6.536;2022-12-24T00:24:02;14.15;;;11.50;;
61015;SDS011;46902;52.920;6.536;2022-12-24T00:26:29;13.27;;;11.38;;
61015;SDS011;46902;52.920;6.536;2022-12-24T00:28:58;15.32;;;11.80;;
61015;SDS011;46902;52.920;6.536;2022-12-24T00:31:24;17.88;;;12.65;;
61015;SDS011;46902;52.920;6.536;2022-12-24T00:33:50;16.83;;;12.15;;
61015;SDS011;46902;52.920;6.536;2022-12-24T00:36:16;19.23;;;14.10;;
61015;SDS011;46902;52.920;6.536;2022-12-24T00:38:43;15.90;;;12.48;;
61015;SDS011;46902;52.920;6.536;2022-12-24T00:41:09;16.70;;;12.75;;
61015;SDS011;46902;52.920;6.536;2022-12-24T00:46:18;20.08;;;12.82;;
61015;SDS011;46902;52.920;6.536;2022-12-24T00:48:44;15.30;;;11.55;;
61015;SDS011;46902;52.920;6.536;2022-12-24T00:51:10;16.40;;;11.77;;
61015;SDS011;46902;52.920;6.536;2022-12-24T00:53:35;25.75;;;14.48;;
61015;SDS011;46902;52.920;6.536;2022-12-24T00:56:01;19.52;;;13.13;;
61015;SDS011;46902;52.920;6.536;2022-12-24T00:58:26;17.60;;;13.15;;
61015;SDS011;46902;52.920;6.536;2022-12-24T01:00:52;15.68;;;12.90;;
61015;SDS011;46902;52.920;6.536;2022-12-24T01:03:17;17.67;;;13.55;;
61015;SDS011;46902;52.920;6.536;2022-12-24T01:05:43;20.95;;;13.07;;
61015;SDS011;46902;52.920;6.536;2022-12-24T01:08:08;21.95;;;14.10;;
61015;SDS011;46902;52.920;6.536;2022-12-24T01:10:34;15.57;;;12.70;;
61015;SDS011;46902;52.920;6.536;2022-12-24T01:13:00;19.33;;;12.98;;
61015;SDS011;46902;52.920;6.536;2022-12-24T01:15:27;20.77;;;13.98;;
61015;SDS011;46902;52.920;6.536;2022-12-24T01:17:53;26.33;;;15.05;;
61015;SDS011;46902;52.920;6.536;2022-12-24T01:20:19;17.58;;;13.38;;
61015;SDS011;46902;52.920;6.536;2022-12-24T01:22:44;16.80;;;13.15;;
61015;SDS011;46902;52.920;6.536;2022-12-24T01:25:11;19.40;;;14.90;;
61015;SDS011;46902;52.920;6.536;2022-12-24T01:27:36;25.40;;;17.30;;
61015;SDS011;46902;52.920;6.536;2022-12-24T01:30:03;31.80;;;19.52;;
61015;SDS011;46902;52.920;6.536;2022-12-24T01:32:30;29.90;;;18.77;;
61015;SDS011;46902;52.920;6.536;2022-12-24T01:34:56;26.08;;;17.58;;
61015;SDS011;46902;52.920;6.536;2022-12-24T01:37:22;36.00;;;20.15;;
61015;SDS011;46902;52.920;6.536;2022-12-24T01:39:47;48.38;;;23.38;;
61015;SDS011;46902;52.920;6.536;2022-12-24T01:42:22;36.83;;;20.70;;
61015;SDS011;46902;52.920;6.536;2022-12-24T01:48:04;28.38;;;18.60;;
61015;SDS011;46902;52.920;6.536;2022-12-24T01:50:36;26.77;;;17.40;;
61015;SDS011;46902;52.920;6.536;2022-12-24T01:53:02;34.78;;;19.42;;
61015;SDS011;46902;52.920;6.536;2022-12-24T01:55:30;29.10;;;17.42;;
61015;SDS011;46902;52.920;6.536;2022-12-24T01:57:55;28.15;;;18.48;;
61015;SDS011;46902;52.920;6.536;2022-12-24T02:00:24;20.75;;;15.15;;
61015;SDS011;46902;52.920;6.536;2022-12-24T02:02:50;25.42;;;17.20;;
61015;SDS011;46902;52.920;6.536;2022-12-24T02:05:22;24.17;;;15.18;;
61015;SDS011;46902;52.920;6.536;2022-12-24T02:07:58;22.15;;;15.90;;
61015;SDS011;46902;52.920;6.536;2022-12-24T02:10:26;20.98;;;14.55;;
61015;SDS011;46902;52.920;6.536;2022-12-24T02:12:52;26.50;;;14.45;;
61015;SDS011;46902;52.920;6.536;2022-12-24T02:15:18;20.20;;;13.82;;
61015;SDS011;46902;52.920;6.536;2022-12-24T02:24:01;17.35;;;11.32;;
61015;SDS011;46902;52.920;6.536;2022-12-24T02:32:28;18.05;;;10.52;;
61015;SDS011;46902;52.920;6.536;2022-12-24T02:37:40;12.25;;;8.25;;
61015;SDS011;46902;52.920;6.536;2022-12-24T02:40:13;15.45;;;9.27;;
61015;SDS011;46902;52.920;6.536;2022-12-24T02:42:43;11.95;;;7.65;;
61015;SDS011;46902;52.920;6.536;2022-12-24T02:45:15;14.20;;;7.70;;
61015;SDS011;46902;52.920;6.536;2022-12-24T02:47:44;14.45;;;7.55;;
61015;SDS011;46902;52.920;6.536;2022-12-24T02:50:12;13.48;;;6.88;;
61015;SDS011;46902;52.920;6.536;2022-12-24T02:52:41;14.32;;;7.47;;
61015;SDS011;46902;52.920;6.536;2022-12-24T02:55:10;17.02;;;6.68;;
61015;SDS011;46902;52.920;6.536;2022-12-24T02:58:15;20.90;;;7.28;;
61015;SDS011;46902;52.920;6.536;2022-12-24T03:01:25;22.60;;;6.40;;
61015;SDS011;46902;52.920;6.536;2022-12-24T03:06:50;30.02;;;6.88;;
61015;SDS011;46902;52.920;6.536;2022-12-24T03:09:37;35.78;;;6.30;;
61015;SDS011;46902;52.920;6.536;2022-12-24T03:12:09;28.10;;;5.88;;
61015;SDS011;46902;52.920;6.536;2022-12-24T03:14:39;31.65;;;5.53;;
61015;SDS011;46902;52.920;6.536;2022-12-24T03:17:06;29.15;;;5.10;;
61015;SDS011;46902;52.920;6.536;2022-12-24T03:19:33;34.75;;;5.20;;
61015;SDS011;46902;52.920;6.536;2022-12-24T03:21:59;28.30;;;4.88;;
61015;SDS011;46902;52.920;6.536;2022-12-24T03:24:28;33.45;;;5.60;;
61015;SDS011;46902;52.920;6.536;2022-12-24T03:26:53;32.25;;;5.35;;
61015;SDS011;46902;52.920;6.536;2022-12-24T03:29:20;36.58;;;5.57;;
61015;SDS011;46902;52.920;6.536;2022-12-24T03:31:46;33.30;;;5.75;;
61015;SDS011;46902;52.920;6.536;2022-12-24T03:34:17;37.70;;;5.22;;
61015;SDS011;46902;52.920;6.536;2022-12-24T03:36:43;31.80;;;5.18;;
61015;SDS011;46902;52.920;6.536;2022-12-24T03:39:09;35.35;;;5.95;;
61015;SDS011;46902;52.920;6.536;2022-12-24T03:41:35;34.13;;;6.20;;
61015;SDS011;46902;52.920;6.536;2022-12-24T03:44:02;36.05;;;5.65;;
61015;SDS011;46902;52.920;6.536;2022-12-24T03:46:28;29.45;;;5.28;;
61015;SDS011;46902;52.920;6.536;2022-12-24T03:48:53;38.05;;;5.35;;
61015;SDS011;46902;52.920;6.536;2022-12-24T03:51:20;37.90;;;6.13;;
61015;SDS011;46902;52.920;6.536;2022-12-24T03:53:47;28.98;;;5.43;;
61015;SDS011;46902;52.920;6.536;2022-12-24T03:56:13;35.67;;;6.22;;
61015;SDS011;46902;52.920;6.536;2022-12-24T03:58:39;33.65;;;5.82;;
61015;SDS011;46902;52.920;6.536;2022-12-24T04:01:04;32.20;;;5.75;;
61015;SDS011;46902;52.920;6.536;2022-12-24T04:03:30;38.28;;;6.13;;
61015;SDS011;46902;52.920;6.536;2022-12-24T04:06:03;34.95;;;6.00;;
61015;SDS011;46902;52.920;6.536;2022-12-24T04:08:33;31.30;;;5.45;;
61015;SDS011;46902;52.920;6.536;2022-12-24T04:10:59;42.65;;;5.93;;
61015;SDS011;46902;52.920;6.536;2022-12-24T04:13:24;34.55;;;6.15;;
61015;SDS011;46902;52.920;6.536;2022-12-24T04:16:00;31.80;;;5.25;;
61015;SDS011;46902;52.920;6.536;2022-12-24T04:18:31;38.50;;;6.20;;
61015;SDS011;46902;52.920;6.536;2022-12-24T04:20:58;33.60;;;6.43;;
61015;SDS011;46902;52.920;6.536;2022-12-24T04:23:24;33.88;;;5.97;;
61015;SDS011;46902;52.920;6.536;2022-12-24T04:25:49;40.08;;;5.22;;
61015;SDS011;46902;52.920;6.536;2022-12-24T04:28:15;35.78;;;4.93;;
61015;SDS011;46902;52.920;6.536;2022-12-24T04:30:42;28.70;;;4.63;;
61015;SDS011;46902;52.920;6.536;2022-12-24T04:33:08;34.45;;;6.20;;
61015;SDS011;46902;52.920;6.536;2022-12-24T04:35:37;37.88;;;5.75;;
61015;SDS011;46902;52.920;6.536;2022-12-24T04:38:04;43.55;;;6.78;;
61015;SDS011;46902;52.920;6.536;2022-12-24T04:40:30;46.10;;;5.95;;
61015;SDS011;46902;52.920;6.536;2022-12-24T04:42:55;39.47;;;5.70;;
61015;SDS011;46902;52.920;6.536;2022-12-24T04:45:21;35.88;;;6.38;;
61015;SDS011;46902;52.920;6.536;2022-12-24T04:47:46;38.78;;;6.07;;
61015;SDS011;46902;52.920;6.536;2022-12-24T04:50:12;37.08;;;6.70;;
61015;SDS011;46902;52.920;6.536;2022-12-24T04:52:38;36.70;;;6.68;;
61015;SDS011;46902;52.920;6.536;2022-12-24T04:55:03;44.15;;;6.43;;
61015;SDS011;46902;52.920;6.536;2022-12-24T04:57:32;43.45;;;7.00;;
61015;SDS011;46902;52.920;6.536;2022-12-24T04:59:59;44.58;;;7.63;;
61015;SDS011;46902;52.920;6.536;2022-12-24T05:02:26;48.03;;;6.82;;
61015;SDS011;46902;52.920;6.536;2022-12-24T05:04:51;49.42;;;6.72;;
61015;SDS011;46902;52.920;6.536;2022-12-24T05:07:17;40.78;;;7.38;;
61015;SDS011;46902;52.920;6.536;2022-12-24T05:09:43;53.80;;;7.32;;
61015;SDS011;46902;52.920;6.536;2022-12-24T05:12:08;40.47;;;6.75;;
61015;SDS011;46902;52.920;6.536;2022-12-24T05:14:34;47.78;;;7.25;;
61015;SDS011;46902;52.920;6.536;2022-12-24T05:16:59;51.35;;;7.22;;
61015;SDS011;46902;52.920;6.536;2022-12-24T05:19:25;50.25;;;7.13;;
61015;SDS011;46902;52.920;6.536;2022-12-24T05:21:50;46.88;;;6.97;;
61015;SDS011;46902;52.920;6.536;2022-12-24T05:24:35;43.30;;;7.88;;
61015;SDS011;46902;52.920;6.536;2022-12-24T05:27:19;52.53;;;7.38;;
61015;SDS011;46902;52.920;6.536;2022-12-24T05:29:45;47.42;;;7.03;;
61015;SDS011;46902;52.920;6.536;2022-12-24T05:32:10;48.65;;;6.72;;
61015;SDS011;46902;52.920;6.536;2022-12-24T05:34:36;51.25;;;7.72;;
61015;SDS011;46902;52.920;6.536;2022-12-24T05:37:02;48.42;;;7.30;;
61015;SDS011;46902;52.920;6.536;2022-12-24T05:39:27;42.25;;;6.65;;
61015;SDS011;46902;52.920;6.536;2022-12-24T05:41:53;46.10;;;7.15;;
61015;SDS011;46902;52.920;6.536;2022-12-24T05:44:18;51.38;;;8.23;;
61015;SDS011;46902;52.920;6.536;2022-12-24T05:46:44;47.47;;;7.82;;
61015;SDS011;46902;52.920;6.536;2022-12-24T05:49:09;48.75;;;7.78;;
61015;SDS011;46902;52.920;6.536;2022-12-24T05:51:35;53.03;;;7.82;;
61015;SDS011;46902;52.920;6.536;2022-12-24T05:54:01;50.67;;;7.32;;
61015;SDS011;46902;52.920;6.536;2022-12-24T05:56:27;44.67;;;7.13;;
61015;SDS011;46902;52.920;6.536;2022-12-24T05:58:53;52.63;;;7.30;;
61015;SDS011;46902;52.920;6.536;2022-12-24T06:01:19;50.95;;;7.35;;
61015;SDS011;46902;52.920;6.536;2022-12-24T06:03:46;44.40;;;7.00;;
61015;SDS011;46902;52.920;6.536;2022-12-24T06:06:15;54.03;;;8.32;;
61015;SDS011;46902;52.920;6.536;2022-12-24T06:08:45;49.80;;;8.20;;
61015;SDS011;46902;52.920;6.536;2022-12-24T06:11:12;44.10;;;6.90;;
61015;SDS011;46902;52.920;6.536;2022-12-24T06:13:39;53.75;;;8.40;;
61015;SDS011;46902;52.920;6.536;2022-12-24T06:16:05;52.15;;;8.00;;
61015;SDS011;46902;52.920;6.536;2022-12-24T06:18:33;56.38;;;8.57;;
61015;SDS011;46902;52.920;6.536;2022-12-24T06:21:00;53.97;;;8.32;;
61015;SDS011;46902;52.920;6.536;2022-12-24T06:23:27;55.67;;;8.85;;
61015;SDS011;46902;52.920;6.536;2022-12-24T06:25:55;55.53;;;8.15;;
61015;SDS011;46902;52.920;6.536;2022-12-24T06:28:22;42.47;;;7.50;;
61015;SDS011;46902;52.920;6.536;2022-12-24T06:30:48;49.13;;;8.25;;
61015;SDS011;46902;52.920;6.536;2022-12-24T06:33:14;54.83;;;8.32;;
61015;SDS011;46902;52.920;6.536;2022-12-24T06:35:43;54.72;;;8.45;;
61015;SDS011;46902;52.920;6.536;2022-12-24T06:38:09;56.95;;;8.38;;
61015;SDS011;46902;52.920;6.536;2022-12-24T06:40:36;49.45;;;7.85;;
61015;SDS011;46902;52.920;6.536;2022-12-24T06:43:03;57.20;;;7.82;;
61015;SDS011;46902;52.920;6.536;2022-12-24T06:45:29;53.30;;;8.00;;
61015;SDS011;46902;52.920;6.536;2022-12-24T06:47:54;48.08;;;7.78;;
61015;SDS011;46902;52.920;6.536;2022-12-24T06:50:20;53.10;;;7.55;;
61015;SDS011;46902;52.920;6.536;2022-12-24T06:52:45;56.03;;;9.05;;
61015;SDS011;46902;52.920;6.536;2022-12-24T06:55:11;49.05;;;8.45;;
61015;SDS011;46902;52.920;6.536;2022-12-24T06:57:37;52.55;;;9.20;;
61015;SDS011;46902;52.920;6.536;2022-12-24T07:00:02;53.20;;;8.55;;
61015;SDS011;46902;52.920;6.536;2022-12-24T07:02:28;42.47;;;7.30;;
61015;SDS011;46902;52.920;6.536;2022-12-24T07:04:54;54.78;;;8.07;;
61015;SDS011;46902;52.920;6.536;2022-12-24T07:07:19;45.40;;;7.28;;
61015;SDS011;46902;52.920;6.536;2022-12-24T07:09:45;45.20;;;8.15;;
61015;SDS011;46902;52.920;6.536;2022-12-24T07:12:10;42.30;;;7.70;;
61015;SDS011;46902;52.920;6.536;2022-12-24T07:14:36;41.90;;;6.75;;
61015;SDS011;46902;52.920;6.536;2022-12-24T07:17:02;50.33;;;7.00;;
61015;SDS011;46902;52.920;6.536;2022-12-24T07:19:27;50.17;;;7.50;;
61015;SDS011;46902;52.920;6.536;2022-12-24T07:21:53;47.28;;;7.60;;
61015;SDS011;46902;52.920;6.536;2022-12-24T07:24:18;45.20;;;7.63;;
61015;SDS011;46902;52.920;6.536;2022-12-24T07:26:44;47.28;;;6.75;;
61015;SDS011;46902;52.920;6.536;2022-12-24T07:29:10;53.55;;;7.47;;
61015;SDS011;46902;52.920;6.536;2022-12-24T07:31:35;45.92;;;7.05;;
61015;SDS011;46902;52.920;6.536;2022-12-24T07:34:01;59.38;;;9.40;;
61015;SDS011;46902;52.920;6.536;2022-12-24T07:36:26;45.53;;;7.25;;
61015;SDS011;46902;52.920;6.536;2022-12-24T07:38:52;57.47;;;7.82;;
61015;SDS011;46902;52.920;6.536;2022-12-24T07:41:18;49.03;;;7.63;;
61015;SDS011;46902;52.920;6.536;2022-12-24T07:43:44;41.08;;;6.93;;
61015;SDS011;46902;52.920;6.536;2022-12-24T07:46:10;49.25;;;7.35;;
61015;SDS011;46902;52.920;6.536;2022-12-24T07:48:36;46.88;;;8.27;;
61015;SDS011;46902;52.920;6.536;2022-12-24T07:51:02;51.70;;;6.85;;
61015;SDS011;46902;52.920;6.536;2022-12-24T07:53:28;49.28;;;7.93;;
61015;SDS011;46902;52.920;6.536;2022-12-24T07:55:54;49.70;;;7.93;;
61015;SDS011;46902;52.920;6.536;2022-12-24T07:58:20;37.58;;;6.20;;
61015;SDS011;46902;52.920;6.536;2022-12-24T08:00:46;48.67;;;7.13;;
61015;SDS011;46902;52.920;6.536;2022-12-24T08:03:18;48.53;;;6.53;;
61015;SDS011;46902;52.920;6.536;2022-12-24T08:05:45;36.45;;;5.88;;
61015;SDS011;46902;52.920;6.536;2022-12-24T08:08:11;42.85;;;6.45;;
61015;SDS011;46902;52.920;6.536;2022-12-24T08:10:38;49.60;;;6.78;;
61015;SDS011;46902;52.920;6.536;2022-12-24T08:13:04;44.80;;;6.95;;
61015;SDS011;46902;52.920;6.536;2022-12-24T08:15:31;39.58;;;6.13;;
61015;SDS011;46902;52.920;6.536;2022-12-24T08:17:56;45.95;;;7.07;;
61015;SDS011;46902;52.920;6.536;2022-12-24T08:20:22;53.58;;;7.93;;
61015;SDS011;46902;52.920;6.536;2022-12-24T08:22:47;44.75;;;7.18;;
61015;SDS011;46902;52.920;6.536;2022-12-24T08:25:13;44.28;;;6.88;;
61015;SDS011;46902;52.920;6.536;2022-12-24T08:27:39;49.15;;;8.45;;
61015;SDS011;46902;52.920;6.536;2022-12-24T08:30:05;44.33;;;7.63;;
61015;SDS011;46902;52.920;6.536;2022-12-24T08:32:32;57.20;;;7.78;;
61015;SDS011;46902;52.920;6.536;2022-12-24T08:34:57;42.38;;;7.80;;
61015;SDS011;46902;52.920;6.536;2022-12-24T08:37:23;53.40;;;8.75;;
61015;SDS011;46902;52.920;6.536;2022-12-24T08:39:48;60.33;;;8.90;;
61015;SDS011;46902;52.920;6.536;2022-12-24T08:42:14;48.17;;;8.45;;
61015;SDS011;46902;52.920;6.536;2022-12-24T08:44:40;47.65;;;7.85;;
61015;SDS011;46902;52.920;6.536;2022-12-24T08:47:05;42.83;;;8.25;;
61015;SDS011;46902;52.920;6.536;2022-12-24T08:49:31;47.88;;;7.80;;
61015;SDS011;46902;52.920;6.536;2022-12-24T08:51:56;43.60;;;8.15;;
61015;SDS011;46902;52.920;6.536;2022-12-24T08:54:23;43.80;;;6.85;;
61015;SDS011;46902;52.920;6.536;2022-12-24T08:56:49;51.72;;;8.63;;
61015;SDS011;46902;52.920;6.536;2022-12-24T08:59:15;47.17;;;7.90;;
61015;SDS011;46902;52.920;6.536;2022-12-24T09:01:40;42.47;;;8.15;;
61015;SDS011;46902;52.920;6.536;2022-12-24T09:04:06;44.75;;;7.22;;
61015;SDS011;46902;52.920;6.536;2022-12-24T09:06:32;42.13;;;7.55;;
61015;SDS011;46902;52.920;6.536;2022-12-24T09:08:57;49.60;;;7.78;;
61015;SDS011;46902;52.920;6.536;2022-12-24T09:11:23;40.47;;;7.32;;
61015;SDS011;46902;52.920;6.536;2022-12-24T09:13:49;59.50;;;8.75;;
61015;SDS011;46902;52.920;6.536;2022-12-24T09:16:14;48.75;;;7.88;;
61015;SDS011;46902;52.920;6.536;2022-12-24T09:18:40;44.67;;;6.97;;
61015;SDS011;46902;52.920;6.536;2022-12-24T09:21:08;52.55;;;8.52;;
61015;SDS011;46902;52.920;6.536;2022-12-24T09:23:38;45.40;;;7.80;;
61015;SDS011;46902;52.920;6.536;2022-12-24T09:26:08;44.42;;;8.20;;
61015;SDS011;46902;52.920;6.536;2022-12-24T09:28:38;47.65;;;7.35;;
61015;SDS011;46902;52.920;6.536;2022-12-24T09:31:04;62.72;;;9.52;;
61015;SDS011;46902;52.920;6.536;2022-12-24T09:33:31;52.10;;;8.93;;
61015;SDS011;46902;52.920;6.536;2022-12-24T09:35:59;47.60;;;8.10;;
61015;SDS011;46902;52.920;6.536;2022-12-24T09:38:24;56.67;;;8.60;;
61015;SDS011;46902;52.920;6.536;2022-12-24T09:40:51;49.22;;;8.18;;
61015;SDS011;46902;52.920;6.536;2022-12-24T09:43:22;45.13;;;8.13;;
61015;SDS011;46902;52.920;6.536;2022-12-24T09:45:54;50.20;;;7.15;;
61015;SDS011;46902;52.920;6.536;2022-12-24T09:48:28;41.60;;;6.72;;
61015;SDS011;46902;52.920;6.536;2022-12-24T09:51:01;32.72;;;6.20;;
61015;SDS011;46902;52.920;6.536;2022-12-24T09:53:44;39.95;;;6.90;;
61015;SDS011;46902;52.920;6.536;2022-12-24T09:56:16;34.33;;;5.82;;
61015;SDS011;46902;52.920;6.536;2022-12-24T09:58:46;34.97;;;6.20;;
61015;SDS011;46902;52.920;6.536;2022-12-24T10:01:15;35.20;;;5.60;;
61015;SDS011;46902;52.920;6.536;2022-12-24T10:03:42;31.55;;;5.80;;
61015;SDS011;46902;52.920;6.536;2022-12-24T10:06:10;38.90;;;5.63;;
61015;SDS011;46902;52.920;6.536;2022-12-24T10:27:38;34.65;;;5.55;;
61015;SDS011;46902;52.920;6.536;2022-12-24T10:32:40;30.27;;;5.70;;
61015;SDS011;46902;52.920;6.536;2022-12-24T10:37:38;38.90;;;6.40;;
61015;SDS011;46902;52.920;6.536;2022-12-24T10:40:10;34.28;;;5.80;;
61015;SDS011;46902;52.920;6.536;2022-12-24T10:42:47;43.33;;;6.63;;
61015;SDS011;46902;52.920;6.536;2022-12-24T10:45:13;40.85;;;6.93;;
61015;SDS011;46902;52.920;6.536;2022-12-24T10:47:41;38.30;;;6.30;;
61015;SDS011;46902;52.920;6.536;2022-12-24T10:50:12;37.83;;;6.20;;
61015;SDS011;46902;52.920;6.536;2022-12-24T10:52:44;40.35;;;6.25;;
61015;SDS011;46902;52.920;6.536;2022-12-24T10:57:55;35.60;;;5.70;;
61015;SDS011;46902;52.920;6.536;2022-12-24T11:00:25;36.60;;;6.07;;
61015;SDS011;46902;52.920;6.536;2022-12-24T11:05:45;39.10;;;5.82;;
61015;SDS011;46902;52.920;6.536;2022-12-24T11:08:14;35.63;;;5.68;;
61015;SDS011;46902;52.920;6.536;2022-12-24T11:10:43;38.85;;;5.82;;
61015;SDS011;46902;52.920;6.536;2022-12-24T11:13:23;38.83;;;6.15;;
61015;SDS011;46902;52.920;6.536;2022-12-24T11:16:03;38.97;;;6.63;;
61015;SDS011;46902;52.920;6.536;2022-12-24T11:18:43;39.72;;;6.43;;
61015;SDS011;46902;52.920;6.536;2022-12-24T11:21:11;39.58;;;7.03;;
61015;SDS011;46902;52.920;6.536;2022-12-24T11:23:55;39.92;;;6.90;;
61015;SDS011;46902;52.920;6.536;2022-12-24T11:26:29;41.58;;;8.05;;
61015;SDS011;46902;52.920;6.536;2022-12-24T11:29:03;37.30;;;6.57;;
61015;SDS011;46902;52.920;6.536;2022-12-24T11:31:44;43.78;;;6.50;;
61015;SDS011;46902;52.920;6.536;2022-12-24T11:34:24;52.50;;;8.15;;
61015;SDS011;46902;52.920;6.536;2022-12-24T11:36:52;46.80;;;7.45;;
61015;SDS011;46902;52.920;6.536;2022-12-24T11:39:21;42.20;;;6.55;;
61015;SDS011;46902;52.920;6.536;2022-12-24T11:41:49;41.55;;;6.90;;
61015;SDS011;46902;52.920;6.536;2022-12-24T11:44:26;46.92;;;7.38;;
61015;SDS011;46902;52.920;6.536;2022-12-24T11:46:53;44.90;;;7.47;;
61015;SDS011;46902;52.920;6.536;2022-12-24T11:57:53;32.83;;;5.53;;
61015;SDS011;46902;52.920;6.536;2022-12-24T12:00:24;35.63;;;5.25;;
61015;SDS011;46902;52.920;6.536;2022-12-24T12:02:51;39.25;;;5.55;;
61015;SDS011;46902;52.920;6.536;2022-12-24T12:05:22;42.13;;;6.90;;
61015;SDS011;46902;52.920;6.536;2022-12-24T12:07:54;25.42;;;5.35;;
61015;SDS011;46902;52.920;6.536;2022-12-24T12:13:02;36.58;;;5.13;;
61015;SDS011;46902;52.920;6.536;2022-12-24T12:15:38;35.58;;;6.43;;
61015;SDS011;46902;52.920;6.536;2022-12-24T12:18:10;34.85;;;5.60;;
61015;SDS011;46902;52.920;6.536;2022-12-24T12:21:22;34.13;;;5.20;;
61015;SDS011;46902;52.920;6.536;2022-12-24T12:26:09;34.88;;;5.60;;
61015;SDS011;46902;52.920;6.536;2022-12-24T12:28:44;35.85;;;5.25;;
61015;SDS011;46902;52.920;6.536;2022-12-24T12:31:20;27.45;;;5.30;;
61015;SDS011;46902;52.920;6.536;2022-12-24T12:34:01;28.23;;;4.45;;
61015;SDS011;46902;52.920;6.536;2022-12-24T12:39:15;28.20;;;4.70;;
61015;SDS011;46902;52.920;6.536;2022-12-24T12:41:47;35.50;;;4.85;;
61015;SDS011;46902;52.920;6.536;2022-12-24T12:50:24;24.02;;;4.63;;
61015;SDS011;46902;52.920;6.536;2022-12-24T12:55:58;29.20;;;4.78;;
61015;SDS011;46902;52.920;6.536;2022-12-24T12:58:36;28.33;;;4.93;;
61015;SDS011;46902;52.920;6.536;2022-12-24T13:01:15;32.63;;;4.68;;
61015;SDS011;46902;52.920;6.536;2022-12-24T13:06:49;29.77;;;5.00;;
61015;SDS011;46902;52.920;6.536;2022-12-24T13:09:31;32.53;;;4.68;;
61015;SDS011;46902;52.920;6.536;2022-12-24T13:20:16;24.92;;;4.45;;
61015;SDS011;46902;52.920;6.536;2022-12-24T13:22:47;27.45;;;4.90;;
61015;SDS011;46902;52.920;6.536;2022-12-24T13:27:53;31.42;;;5.28;;
61015;SDS011;46902;52.920;6.536;2022-12-24T13:32:58;26.98;;;4.93;;
61015;SDS011;46902;52.920;6.536;2022-12-24T13:35:29;32.95;;;5.35;;
61015;SDS011;46902;52.920;6.536;2022-12-24T13:38:28;28.58;;;4.43;;
61015;SDS011;46902;52.920;6.536;2022-12-24T13:40:50;31.40;;;5.03;;
61015;SDS011;46902;52.920;6.536;2022-12-24T13:43:16;33.42;;;5.78;;
61015;SDS011;46902;52.920;6.536;2022-12-24T13:45:43;27.95;;;5.13;;
61015;SDS011;46902;52.920;6.536;2022-12-24T13:50:36;25.70;;;5.60;;
61015;SDS011;46902;52.920;6.536;2022-12-24T13:53:31;34.42;;;5.32;;
61015;SDS011;46902;52.920;6.536;2022-12-24T13:56:06;30.60;;;4.82;;
61015;SDS011;46902;52.920;6.536;2022-12-24T13:58:45;23.85;;;4.30;;
61015;SDS011;46902;52.920;6.536;2022-12-24T14:01:17;28.08;;;4.25;;
61015;SDS011;46902;52.920;6.536;2022-12-24T14:03:46;27.25;;;4.88;;
61015;SDS011;46902;52.920;6.536;2022-12-24T14:06:22;30.58;;;4.75;;
61015;SDS011;46902;52.920;6.536;2022-12-24T14:09:10;26.80;;;5.00;;
61015;SDS011;46902;52.920;6.536;2022-12-24T14:14:37;23.88;;;5.28;;
61015;SDS011;46902;52.920;6.536;2022-12-24T14:17:20;27.27;;;3.97;;
61015;SDS011;46902;52.920;6.536;2022-12-24T14:25:03;23.58;;;4.28;;
61015;SDS011;46902;52.920;6.536;2022-12-24T14:27:43;21.10;;;4.50;;
61015;SDS011;46902;52.920;6.536;2022-12-24T14:32:44;28.13;;;4.43;;
61015;SDS011;46902;52.920;6.536;2022-12-24T14:37:56;26.05;;;4.32;;
61015;SDS011;46902;52.920;6.536;2022-12-24T14:40:28;24.02;;;4.20;;
61015;SDS011;46902;52.920;6.536;2022-12-24T14:43:08;23.80;;;4.03;;
61015;SDS011;46902;52.920;6.536;2022-12-24T14:45:50;24.20;;;4.13;;
61015;SDS011;46902;52.920;6.536;2022-12-24T14:51:05;28.02;;;4.63;;
61015;SDS011;46902;52.920;6.536;2022-12-24T14:56:20;28.20;;;3.85;;
61015;SDS011;46902;52.920;6.536;2022-12-24T14:58:49;24.75;;;4.10;;
61015;SDS011;46902;52.920;6.536;2022-12-24T15:01:23;24.92;;;3.83;;
61015;SDS011;46902;52.920;6.536;2022-12-24T15:06:34;26.77;;;4.05;;
61015;SDS011;46902;52.920;6.536;2022-12-24T15:09:03;26.67;;;4.68;;
61015;SDS011;46902;52.920;6.536;2022-12-24T15:11:30;24.13;;;4.28;;
61015;SDS011;46902;52.920;6.536;2022-12-24T15:13:57;22.15;;;4.75;;
61015;SDS011;46902;52.920;6.536;2022-12-24T15:16:25;25.38;;;3.95;;
61015;SDS011;46902;52.920;6.536;2022-12-24T15:18:55;30.17;;;4.93;;
61015;SDS011;46902;52.920;6.536;2022-12-24T15:21:33;19.42;;;4.53;;
61015;SDS011;46902;52.920;6.536;2022-12-24T15:24:01;18.83;;;3.65;;
61015;SDS011;46902;52.920;6.536;2022-12-24T15:26:34;21.42;;;3.60;;
61015;SDS011;46902;52.920;6.536;2022-12-24T15:29:01;20.95;;;3.38;;
61015;SDS011;46902;52.920;6.536;2022-12-24T15:31:38;22.92;;;3.47;;
61015;SDS011;46902;52.920;6.536;2022-12-24T15:34:04;18.60;;;3.22;;
61015;SDS011;46902;52.920;6.536;2022-12-24T15:36:30;19.48;;;3.40;;
61015;SDS011;46902;52.920;6.536;2022-12-24T15:39:03;22.73;;;4.53;;
61015;SDS011;46902;52.920;6.536;2022-12-24T15:41:40;19.02;;;3.70;;
61015;SDS011;46902;52.920;6.536;2022-12-24T15:44:27;25.58;;;4.70;;
61015;SDS011;46902;52.920;6.536;2022-12-24T15:46:57;23.58;;;4.30;;
61015;SDS011;46902;52.920;6.536;2022-12-24T15:49:25;24.08;;;4.53;;
61015;SDS011;46902;52.920;6.536;2022-12-24T15:51:52;24.17;;;4.47;;
61015;SDS011;46902;52.920;6.536;2022-12-24T15:54:26;26.27;;;4.50;;
61015;SDS011;46902;52.920;6.536;2022-12-24T15:56:52;21.75;;;3.85;;
61015;SDS011;46902;52.920;6.536;2022-12-24T15:59:24;24.55;;;4.43;;
61015;SDS011;46902;52.920;6.536;2022-12-24T16:01:54;23.63;;;3.65;;
61015;SDS011;46902;52.920;6.536;2022-12-24T16:04:24;26.33;;;4.68;;
61015;SDS011;46902;52.920;6.536;2022-12-24T16:06:58;28.83;;;5.10;;
61015;SDS011;46902;52.920;6.536;2022-12-24T16:12:01;22.92;;;4.30;;
61015;SDS011;46902;52.920;6.536;2022-12-24T16:14:36;22.92;;;3.88;;
61015;SDS011;46902;52.920;6.536;2022-12-24T16:17:09;26.48;;;4.00;;
61015;SDS011;46902;52.920;6.536;2022-12-24T16:19:51;30.77;;;4.47;;
61015;SDS011;46902;52.920;6.536;2022-12-24T16:22:19;27.80;;;4.00;;
61015;SDS011;46902;52.920;6.536;2022-12-24T16:24:56;30.17;;;5.45;;
61015;SDS011;46902;52.920;6.536;2022-12-24T16:27:22;30.63;;;5.00;;
61015;SDS011;46902;52.920;6.536;2022-12-24T16:29:48;26.33;;;4.75;;
61015;SDS011;46902;52.920;6.536;2022-12-24T16:32:21;25.85;;;4.50;;
61015;SDS011;46902;52.920;6.536;2022-12-24T16:34:49;23.95;;;4.15;;
61015;SDS011;46902;52.920;6.536;2022-12-24T16:37:15;23.55;;;4.32;;
61015;SDS011;46902;52.920;6.536;2022-12-24T16:39:40;30.00;;;5.00;;
61015;SDS011;46902;52.920;6.536;2022-12-24T16:42:08;26.15;;;4.57;;
61015;SDS011;46902;52.920;6.536;2022-12-24T16:44:52;30.58;;;5.53;;
61015;SDS011;46902;52.920;6.536;2022-12-24T16:47:22;31.02;;;5.45;;